Tiempo atmosférico en la estación meteorológica de Huercal Overa, Almería (295 m.)



Fecha
DESCASC
Temp. máxima en grados centígrados (hora)
DESCASC
Temp. mínima en grados centígrados (hora)
DESCASC
Temp. media en grados centígrados
DESCASC
Racha de viento máxima en m/sg (hora)
DESCASC
Velocidad máxima media en intervalos de 10 minutos(hora)
DESCASC
Precipitaciones diarias en mm
DESCASC
Precipitaciones de 00:00 a 06:00 en mm
DESCASC
Precipitaciones de 06:00 a 12:00 en mm
DESCASC
Precipitaciones de 12:00 a 18:00 en mm
DESCASC
Precipitaciones de 18:00 a 24:00 en mm
DESCASC

Gráficas

Temp. máximas Temp. mínimas Temp. medias Precipitaciones Rachas de viento máximas Velocidades máximas media en intervalos de 10 minutos

Datos horarios

Fecha y hora oficial Temperatura (ºC) Velocidad del viento (km/h) Dirección del viento Racha (km/h) Dirección de racha Precipitación (mm) Presión (hPa) Tendencia (hPa) Humedad (%)
2019-04-23 23:00:00 12.1 14 Oeste 42 Oeste 0 971.6 4.2 37
2019-04-23 22:00:00 13.2 19 Noroeste 40 Norte 0 970.2 3.3 34
2019-04-23 21:00:00 13.7 11 Noroeste 46 Noroeste 0 968.8 2.2 34
2019-04-23 20:00:00 15.7 13 Noroeste 38 Noroeste 0 967.4 0.4 25
2019-04-23 19:00:00 17.1 22 Noroeste 41 Norte 0 966.9 -0.1 25
2019-04-23 18:00:00 16.9 0 Calma 13 Oeste 0 966.6 -0.5 41
2019-04-23 17:00:00 14.9 4 Noroeste 22 Oeste 0.1 967 0.3 57
2019-04-23 16:00:00 15.5 11 Oeste 30 Noroeste 0 967 0.9 48
2019-04-23 15:00:00 13.9 11 Noroeste 72 Oeste 0.2 967.1 1.3 58
2019-04-23 14:00:00 16.4 16 Noroeste 30 Noroeste 0 966.7 1.2 37
2019-04-23 13:00:00 17.6 3 Noroeste 13 Oeste 0 966.1 0.8 34
2019-04-23 12:00:00 16.9 0 Calma 8 Oeste 0 965.8 0.2 37
2019-04-23 11:00:00 17 0 Calma 10 Sudoeste 0 965.5 0.3 37
2019-04-23 10:00:00 16.3 0 Calma 7 Oeste 0 965.3 -0.1 40
2019-04-23 09:00:00 13.6 5 Sudeste 9 Sur 0 965.6 0.2 51
2019-04-23 08:00:00 10.8 0 Calma 7 Noroeste 0 965.2 -0.4 66
2019-04-23 07:00:00 11.1 0 Calma 6 Sudoeste 0 965.4 -0.4 66
2019-04-23 06:00:00 11.2 2 Oeste 8 Sudeste 0 965.4 -1.3 64
2019-04-23 05:00:00 12.6 0 Calma 8 Sur 0 965.6 -1.7 56
2019-04-23 04:00:00 13 0 Calma 6 Sur 0 965.8 -1.7 56
2019-04-23 03:00:00 12.2 0 Calma 6 Norte 0 966.7 -0.9 69
2019-04-23 02:00:00 12.5 0 Calma 5 Sudeste 0 967.3 -0.6 71
2019-04-23 01:00:00 12.3 2 Oeste 5 Oeste 0 967.5 -0.1 75
2019-04-23 00:00:00 13.2 3 Norte 5 Norte 0 967.6 0.4 75
2019-04-22 23:00:00 13.3 0 Calma 5 Sudoeste 0 967.9 1 74
2019-04-22 22:00:00 13.4 2 Nordeste 10 Este 0 967.6 0.9 74
2019-04-22 21:00:00 14.6 5 Este 17 Este 0 967.2 0.6 66
2019-04-22 20:00:00 17.6 0 Calma 14 Este 0 966.9 0.3 44
2019-04-22 19:00:00 17.7 8 Este 19 Sudeste 0 966.7 -0.3 47
2019-04-22 18:00:00 19.1 9 Noroeste 32 Noroeste 0 966.6 -0.6 34
2019-04-22 17:00:00 17.6 18 Oeste 30 Oeste 0 966.6 -0.8 37
2019-04-22 16:00:00 16.9 13 Oeste 37 Oeste 0 967 -1.2 38
2019-04-22 15:00:00 17.4 18 Oeste 32 Oeste 0 967.2 -1.6 37
2019-04-22 14:00:00 18.1 14 Noroeste 30 Noroeste 0 967.4 -1.4 32
2019-04-22 13:00:00 17 10 Noroeste 23 Oeste 0 968.2 -0.6 36
2019-04-22 12:00:00 15.7 8 Noroeste 15 Oeste 0 968.8 0.1 40
2019-04-22 11:00:00 14.1 5 Oeste 12 Oeste 0 968.8 0.4 51
2019-04-22 10:00:00 12.2 5 Oeste 17 Noroeste 0 968.8 0.6 60
2019-04-22 09:00:00 12.3 4 Noroeste 12 Norte 0 968.7 0.2 55
2019-04-22 08:00:00 12.1 6 Norte 16 Noroeste 0 968.4 -0.5 54
2019-04-22 07:00:00 12 5 Norte 16 Norte 0 968.2 -0.9 53
2019-04-22 06:00:00 11.9 8 Norte 17 Norte 0 968.5 -1 52
2019-04-22 05:00:00 11.7 5 Norte 15 Norte 0 968.9 -1.6 53
2019-04-22 04:00:00 11.6 2 Norte 18 Norte 0 969.1 -1.8 55
2019-04-22 03:00:00 11.6 8 Norte 20 Norte 0 969.5 -1.9 55
2019-04-22 02:00:00 11.9 3 Noroeste 23 Norte 0 970.5 -1.1 55
2019-04-22 01:00:00 12.3 8 Noroeste 22 Norte 0 970.9 -0.4 55
2019-04-22 00:00:00 12.7 0 Calma 21 Nordeste 0 971.4 0 53
2019-04-21 23:00:00 12.8 6 Norte 24 Norte 0 971.6 0.3 54
2019-04-21 22:00:00 12.9 8 Nordeste 30 Norte 0 971.3 -0.2 56
2019-04-21 21:00:00 13.3 4 Nordeste 27 Norte 0 971.4 -0.4 56
2019-04-21 20:00:00 13.4 6 Nordeste 21 Nordeste 0 971.3 -0.7 57
2019-04-21 19:00:00 13.6 3 Nordeste 19 Nordeste 0 971.5 -0.8 61
2019-04-21 18:00:00 12.8 2 Nordeste 14 Norte 0.4 971.8 -0.8 71
2019-04-21 17:00:00 12.7 3 Nordeste 22 Nordeste 0.5 972 -1.1 68
2019-04-21 16:00:00 13.8 8 Nordeste 19 Nordeste 0 972.3 -1.6 53
2019-04-21 15:00:00 13.8 6 Norte 25 Nordeste 0 972.6 -1.3 52
2019-04-21 14:00:00 13.2 11 Nordeste 30 Nordeste 0 973.1 -0.8 56
2019-04-21 13:00:00 12.7 9 Nordeste 27 Nordeste 0 973.9 -0.4 56
2019-04-21 12:00:00 12.5 7 Nordeste 23 Nordeste 0 973.9 -0.8 56
2019-04-21 11:00:00 12.4 7 Norte 18 Nordeste 0 973.9 -0.6 56
2019-04-21 10:00:00 11.7 6 Nordeste 20 Norte 0 974.3 -0.1 61
2019-04-21 09:00:00 11.6 6 Nordeste 20 Nordeste 0.1 974.7 0 60
2019-04-21 08:00:00 11.8 8 Nordeste 20 Nordeste 0 974.5 -0.7 60
2019-04-21 07:00:00 11.7 6 Nordeste 28 Nordeste 0 974.4 -1.6 62
2019-04-21 06:00:00 11.5 9 Nordeste 30 Nordeste 0 974.7 -1.7 66
2019-04-21 05:00:00 11.8 11 Nordeste 30 Nordeste 0 975.2 -2.1 66
2019-04-21 04:00:00 12.2 7 Nordeste 19 Norte 0 976 -1.6 66
2019-04-21 03:00:00 12.2 3 Nordeste 13 Nordeste 0 976.4 -1.9 71
2019-04-21 02:00:00 12.5 3 Este 13 Este 0 977.3 -1.2 66
2019-04-21 01:00:00 12.2 0 Calma 15 Este 0 977.6 -1.1 75
2019-04-21 00:00:00 12.3 4 Este 14 Sudeste 0.1 978.3 0.1 72
2019-04-20 23:00:00 12.8 0 Calma 13 Este 0 978.5 0.5 73
2019-04-20 22:00:00 12.3 5 Este 18 Este 0 978.7 0.5 78
2019-04-20 21:00:00 12.3 7 Este 19 Este 0.1 978.2 0.6 80
2019-04-20 20:00:00 11.8 9 Este 25 Sudeste 1.2 978 0.2 82
2019-04-20 19:00:00 12.2 10 Este 27 Este 0 978.2 1 80
2019-04-20 18:00:00 12.9 9 Este 29 Este 0 977.6 0.6 76
2019-04-20 17:00:00 13.7 10 Este 35 Este 0 977.8 0.7 70
2019-04-20 16:00:00 16 13 Este 35 Este 0 977.2 -0.4 63
2019-04-20 15:00:00 16 10 Nordeste 27 Nordeste 0 977 -1.3 63
2019-04-20 14:00:00 17.9 0 Calma 10 Sur 0 977.1 -0.7 47
2019-04-20 13:00:00 14.9 3 Sur 12 Sudoeste 0 977.6 0.5 54
2019-04-20 12:00:00 12.8 7 Sur 16 Sudoeste 0 978.3 2.3 68
2019-04-20 11:00:00 11.6 5 Sur 23 Sudeste 0 977.8 2.8 79
2019-04-20 10:00:00 10.7 12 Sudeste 31 Este 0.1 977.1 2.3 83
2019-04-20 09:00:00 11.7 11 Este 31 Este 0.4 976 0.6 83
2019-04-20 08:00:00 9.8 14 Noroeste 31 Noroeste 6.2 975 -1.2 83
2019-04-20 07:00:00 10.1 10 Oeste 21 Oeste 4.5 974.8 -2.1 83
2019-04-20 06:00:00 10.1 11 Oeste 19 Oeste 5 975.4 -2.9 83
2019-04-20 05:00:00 10.3 10 Oeste 20 Oeste 6.6 976.2 -3.5 84
2019-04-20 04:00:00 10.2 5 Sudoeste 9 Noroeste 4.5 976.9 -2.9 84
2019-04-20 03:00:00 10.3 3 Noroeste 9 Noroeste 1.9 978.3 -2.1 84
2019-04-20 02:00:00 10.7 3 Sudoeste 10 Este 1.6 979.7 -1.4 83
2019-04-20 01:00:00 11 3 Noroeste 9 Oeste 0.3 979.8 -1.3 81
2019-04-20 00:00:00 11.5 0 Calma 9 Norte 0 980.4 0.3 78
2019-04-19 23:00:00 11.6 3 Noroeste 6 Nordeste 0 981.1 0.9 79
2019-04-19 22:00:00 12.1 0 Calma 6 Sudoeste 0 981.1 1 77
2019-04-19 21:00:00 12.3 4 Sur 13 Sudoeste 0 980.1 0.7 72
2019-04-19 20:00:00 13.5 5 Sur 13 Sudeste 0 980.2 1.1 64
2019-04-19 19:00:00 13.9 8 Sur 17 Sudeste 0 980.1 -0.2 58
2019-04-19 18:00:00 15.1 5 Sur 17 Este 0 979.4 -1.2 49
2019-04-19 17:00:00 17.6 3 Oeste 15 Sudoeste 0 979.1 -1.9 40
2019-04-19 16:00:00 14.1 6 Sur 13 Sur 0 980.3 -0.8 60
2019-04-19 15:00:00 13.7 4 Este 12 Este 0 980.6 -0.7 62
2019-04-19 14:00:00 12.7 4 Este 17 Este 0 981 0.5 70
2019-04-19 13:00:00 11.2 5 Este 16 Este 0 981.1 1.1 81
2019-04-19 12:00:00 11.8 7 Este 23 Este 0 981.3 1.3 75
2019-04-19 11:00:00 11.5 6 Este 17 Este 0 980.5 1 75
2019-04-19 10:00:00 10.9 2 Noroeste 6 Sudoeste 0 980 1 81
2019-04-19 09:00:00 10.8 0 Calma 5 Nordeste 0 980 1.1 78
2019-04-19 08:00:00 10.9 3 Este 10 Este 0 979.5 0.4 77
2019-04-19 07:00:00 10.9 0 Calma 12 Este 0 979 -0.2 79
2019-04-19 06:00:00 11.3 0 Calma 7 Nordeste 0 978.9 -0.6 79
2019-04-19 05:00:00 11 0 Calma 6 Sur 0 979.1 -0.6 81
2019-04-19 04:00:00 10.9 2 Sur 6 Sur 0 979.2 0.1 81
2019-04-19 03:00:00 11.5 0 Calma 6 Sudoeste 0 979.5 0.5 78
2019-04-19 02:00:00 11.5 0 Calma 10 Este 0 979.7 0.6 82
2019-04-19 01:00:00 11.5 2 Oeste 7 Sur 0 979.1 0.5 82
2019-04-19 00:00:00 11.8 3 Nordeste 10 Nordeste 0 979 1.5 82
2019-04-18 23:00:00 12.1 3 Nordeste 12 Este 0 979.1 2.1 81
2019-04-18 22:00:00 12.3 5 Nordeste 13 Nordeste 0 978.6 1.6 81
2019-04-18 21:00:00 13 0 Calma 9 Sudeste 0 977.5 0.9 78
2019-04-18 20:00:00 14.2 5 Este 12 Sudeste 0 977 -0.1 69
2019-04-18 19:00:00 14.7 5 Sur 14 Oeste 0 977 -0.1 64
2019-04-18 18:00:00 15.3 0 Calma 9 Sur 0 976.6 -1.3 57
2019-04-18 17:00:00 11.6 7 Sudoeste 18 Noroeste 0 977.1 -2.3 81
2019-04-18 16:00:00 11.5 4 Este 17 Este 0.4 977.1 -1 78
2019-04-18 15:00:00 10.3 3 Norte 30 Oeste 1.7 977.9 -0.3 81
2019-04-18 14:00:00 9.6 14 Oeste 32 Oeste 1.5 979.4 1.6 82
2019-04-18 13:00:00 10.4 16 Noroeste 49 Noroeste 0.3 978.1 0.3 74
2019-04-18 12:00:00 13.1 28 Oeste 47 Oeste 0 978.2 -0.1 55
2019-04-18 11:00:00 15.9 2 Sudoeste 10 Este 0 977.8 0.2 50
2019-04-18 10:00:00 14.9 5 Este 10 Este 0 977.8 0.6 52
2019-04-18 09:00:00 14.7 0 Calma 8 Oeste 0 978.3 1.2 53
2019-04-18 08:00:00 12 4 Nordeste 9 Nordeste 0 977.6 0.5 62
2019-04-18 07:00:00 12.5 4 Este 7 Este 0 977.2 -0.3 61
2019-04-18 06:00:00 13.1 3 Este 9 Sur 0 977.1 -1.4 58
2019-04-18 05:00:00 14 5 Sudoeste 16 Sudoeste 0 977.1 -1.6 56
2019-04-18 04:00:00 14.7 6 Sudoeste 17 Sudoeste 0 977.5 -1.4 50
2019-04-18 03:00:00 14.7 2 Sur 25 Este 0 978.5 -1 53
2019-04-18 02:00:00 14.4 8 Este 21 Nordeste 0 978.7 -1.8 57
2019-04-18 01:00:00 14.8 5 Este 16 Este 0 978.9 0.6 53
2019-04-18 00:00:00 14.6 6 Este 14 Este 0 979.5 2.2 57
2019-04-17 23:00:00 14.8 3 Este 22 Sudeste 0 980.5 3.1 60
2019-04-17 22:00:00 15.3 5 Sudeste 19 Este 0 978.3 1.1 59
2019-04-17 21:00:00 16.8 7 Este 27 Nordeste 0 977.3 -0.1 47
2019-04-17 20:00:00 18 10 Este 28 Nordeste 0 977.4 -0.5 37
2019-04-17 19:00:00 20.7 4 Este 33 Este 0 977.2 -1.4 37
2019-04-17 18:00:00 20.4 7 Sudeste 20 Este 0 977.4 -1.9 38
2019-04-17 17:00:00 20.6 7 Este 19 Este 0 977.9 -2.4 34
2019-04-17 16:00:00 21.2 6 Sudeste 22 Este 0 978.6 -2.5 31
2019-04-17 15:00:00 21 10 Este 27 Este 0 979.3 -2.9 34
2019-04-17 14:00:00 21 7 Sudeste 21 Sudeste 0 980.3 -1.7 34
2019-04-17 13:00:00 18.1 9 Este 21 Este 0 981.1 -1.1 40
2019-04-17 12:00:00 17.6 8 Sudeste 19 Este 0 982.2 -0.5 44
2019-04-17 11:00:00 16.2 10 Este 22 Este 0 982 -0.6 49
2019-04-17 10:00:00 15.6 7 Este 18 Nordeste 0 982.2 -0.2 53
2019-04-17 09:00:00 13.9 0 Calma 7 Noroeste 0 982.7 0.4 57
2019-04-17 08:00:00 10.9 0 Calma 9 Noroeste 0 982.6 0 72
2019-04-17 07:00:00 10.8 4 Noroeste 7 Noroeste 0 982.4 -0.8 74
2019-04-17 06:00:00 10.5 5 Noroeste 7 Noroeste 0 982.3 -1.1 75
2019-04-17 05:00:00 11.8 3 Norte 7 Norte 0 982.6 -1.2 73
2019-04-17 04:00:00 12.5 0 Calma 11 Nordeste 0 983.2 -0.9 73
2019-04-17 03:00:00 12.8 4 Este 14 Sudeste 0 983.4 -0.8 72
2019-04-17 02:00:00 13.1 2 Este 9 Este 0 983.8 -0.4 73
2019-04-17 01:00:00 13.3 0 Calma 6 Sudeste 0 984.1 0.4 73
2019-04-17 00:00:00 13.9 0 Calma 6 Oeste 0 984.2 1.4 75
2019-04-16 23:00:00 14.4 0 Calma 6 Sur 0 984.2 1.9 75
2019-04-16 22:00:00 14.2 3 Sudoeste 13 Sudoeste 0 983.7 2.1 72
2019-04-16 21:00:00 16.1 5 Sudeste 24 Este 0 982.8 1.3 50
2019-04-16 20:00:00 17.4 12 Este 22 Este 0 982.3 0.5 40
2019-04-16 19:00:00 19.6 10 Sur 24 Sudoeste 0 981.6 -0.5 29
2019-04-16 18:00:00 20.7 14 Sur 30 Sudoeste 0 981.5 -1.3 28
2019-04-16 17:00:00 20.4 17 Sur 36 Oeste 0 981.8 -1.4 28
2019-04-16 16:00:00 20.8 15 Sudoeste 28 Sudoeste 0 982.1 -1.3 28
2019-04-16 15:00:00 20.7 14 Sur 31 Sudoeste 0 982.8 -0.9 31
2019-04-16 14:00:00 19.9 16 Sudoeste 29 Sudoeste 0 983.2 -0.2 30
2019-04-16 13:00:00 19.9 16 Sudoeste 30 Sudoeste 0 983.4 0.4 35
2019-04-16 12:00:00 19.6 11 Sur 22 Sudoeste 0 983.7 0.7 36
2019-04-16 11:00:00 18.9 9 Sudoeste 18 Sudoeste 0 983.4 0.2 39
2019-04-16 10:00:00 19.3 0 Calma 12 Este 0 983 0.9 40
2019-04-16 09:00:00 15.4 5 Nordeste 16 Este 0 983 1 50
2019-04-16 08:00:00 15.1 5 Noroeste 16 Oeste 0 983.2 1.1 50
2019-04-16 07:00:00 15.4 12 Oeste 18 Noroeste 0 982.1 1.1 52
2019-04-16 06:00:00 16.1 12 Noroeste 25 Norte 0 982 0.4 48
2019-04-16 05:00:00 15.4 0 Calma 34 Noroeste 0 982.1 0.5 47
2019-04-16 04:00:00 16.7 18 Oeste 31 Oeste 0 981 -0.3 46
2019-04-16 03:00:00 11.9 2 Nordeste 8 Noroeste 0 981.6 0.4 81
2019-04-16 02:00:00 12.4 0 Calma 9 Este 0 981.6 0.7 80
2019-04-16 01:00:00 12.9 0 Calma 3 Sur 0 981.3 1.3 81
2019-04-16 00:00:00 13.2 0 Calma 9 Sudoeste 0 981.2 1.6 81
2019-04-15 23:00:00 13.9 5 Sudoeste 9 Sudoeste 0 980.9 2.2 79
2019-04-15 22:00:00 14.6 7 Sudoeste 14 Sur 0 980 1.9 69
2019-04-15 21:00:00 16 7 Sur 23 Sur 0 979.6 1.9 55
2019-04-15 20:00:00 17.6 13 Sur 21 Sur 0 978.7 0.8 40
2019-04-15 19:00:00 19.3 15 Sudoeste 30 Sudoeste 0 978.1 0.2 30
2019-04-15 18:00:00 20.9 14 Sudoeste 27 Sudoeste 0 977.7 -0.9 31
2019-04-15 17:00:00 21.3 14 Sudoeste 26 Sudoeste 0 977.9 -0.4 31
2019-04-15 16:00:00 21.9 11 Sudoeste 26 Sudoeste 0 977.9 -0.6 33
2019-04-15 15:00:00 20.9 13 Sudoeste 24 Sudoeste 0 978.6 -0.7 32
2019-04-15 14:00:00 24.8 12 Sudoeste 27 Sudoeste 0 978.3 -0.9 27
2019-04-15 13:00:00 24.2 13 Sudoeste 23 Sudoeste 0 978.5 -0.3 25
2019-04-15 12:00:00 23.4 11 Sur 19 Sudoeste 0 979.3 -0.1 27
2019-04-15 11:00:00 23 3 Sur 7 Sur 0 979.2 -0.3 31
2019-04-15 10:00:00 20.7 0 Calma 3 Noroeste 0 978.8 -0.6 39
2019-04-15 09:00:00 17 0 Calma 5 Sur 0 979.4 0.2 46
2019-04-15 08:00:00 13.3 0 Calma 4 Nordeste 0 979.5 0 51
2019-04-15 07:00:00 12.7 0 Calma 5 Sudeste 0 979.4 -0.3 51
2019-04-15 06:00:00 14.3 0 Calma 6 Oeste 0 979.2 -1.1 49
2019-04-15 05:00:00 14.7 3 Noroeste 6 Oeste 0 979.5 -1.2 48
2019-04-15 04:00:00 14.9 3 Este 5 Este 0 979.7 -1.4 48
2019-04-15 03:00:00 15.7 0 Calma 4 Nordeste 0 980.3 -1 46
2019-04-15 02:00:00 16.7 0 Calma 5 Nordeste 0 980.7 -0.2 46
2019-04-15 01:00:00 17.1 3 Este 6 Nordeste 0 981.1 0.5 44
2019-04-15 00:00:00 17.4 0 Calma 8 Sudoeste 0 981.3 1.5 44
2019-04-14 23:00:00 17.8 4 Sudeste 7 Este 0 980.9 1.6 41
2019-04-14 22:00:00 18.9 5 Este 13 Este 0 980.6 1.8 39
2019-04-14 21:00:00 20.6 7 Este 15 Este 0 979.8 1 31
2019-04-14 20:00:00 23.5 7 Sudoeste 19 Sur 0 979.3 0.2 21
2019-04-14 19:00:00 25 9 Sur 26 Sur 0 978.8 -0.9 20
2019-04-14 18:00:00 24.6 13 Sur 28 Sur 0 978.8 -1.6 20
2019-04-14 17:00:00 25.6 14 Sur 29 Sudoeste 0 979.1 -2.1 21
2019-04-14 16:00:00 24.6 13 Sur 27 Sudoeste 0 979.7 -2 21
2019-04-14 15:00:00 24.3 15 Sur 31 Sudoeste 0 980.4 -1.8 21
2019-04-14 14:00:00 24.2 14 Sur 27 Sudoeste 0 981.2 -1.2 20
2019-04-14 13:00:00 24 10 Sur 26 Sudoeste 0 981.7 -0.9 21
2019-04-14 12:00:00 23.8 7 Oeste 24 Sudoeste 0 982.2 -0.9 23
2019-04-14 11:00:00 21.8 8 Oeste 16 Sudoeste 0 982.4 -0.5 26
2019-04-14 10:00:00 19.1 5 Sur 11 Sur 0 982.6 -0.2 31
2019-04-14 09:00:00 15.9 3 Sur 6 Nordeste 0 983.1 0.5 35
2019-04-14 08:00:00 12.7 3 Nordeste 10 Sudoeste 0 982.9 0.3 38
2019-04-14 07:00:00 14 4 Sur 8 Sudoeste 0 982.8 -0.1 37
2019-04-14 06:00:00 13.4 0 Calma 6 Oeste 0 982.6 -0.7 37
2019-04-14 05:00:00 13 4 Este 6 Este 0 982.6 -1.1 37
2019-04-14 04:00:00 13.9 0 Calma 6 Sudoeste 0 982.9 -0.9 35
2019-04-14 03:00:00 14.7 3 Sudoeste 7 Sur 0 983.3 -0.6 34
2019-04-14 02:00:00 15.8 2 Sur 7 Sudoeste 0 983.7 0.1 34
2019-04-14 01:00:00 14.3 2 Este 6 Nordeste 0 983.8 0.8 35
2019-04-14 00:00:00 14.8 0 Calma 5 Sudoeste 0 983.9 2.1 32
2019-04-13 23:00:00 15.9 2 Este 9 Nordeste 0 983.6 2.3 29
2019-04-13 22:00:00 16.9 3 Nordeste 9 Nordeste 0 983 2.1 27
2019-04-13 21:00:00 19.6 2 Sudeste 15 Sur 0 981.8 0.8 21
2019-04-13 20:00:00 20.9 10 Sur 28 Sudoeste 0 981.3 0.7 20
2019-04-13 19:00:00 21.5 15 Sur 29 Sur 0 980.9 -0.4 18
2019-04-13 18:00:00 22.5 14 Sudoeste 33 Sudoeste 0 981 -0.7 18
2019-04-13 17:00:00 22.4 15 Sur 32 Sur 0 980.6 -1.5 18
2019-04-13 16:00:00 22 16 Sur 31 Sur 0 981.3 -1.8 18
2019-04-13 15:00:00 23.2 10 Oeste 26 Oeste 0 981.7 -1.8 16
2019-04-13 14:00:00 22.6 4 Sudoeste 32 Sudoeste 0 982.1 -1.6 18
2019-04-13 13:00:00 20.6 9 Sudoeste 26 Oeste 0 983.1 -0.5 19
2019-04-13 12:00:00 21.1 3 Sudeste 24 Oeste 0 983.5 -0.4 22
2019-04-13 11:00:00 19.7 14 Oeste 23 Oeste 0 983.7 0.7 27
2019-04-13 10:00:00 16.2 5 Sur 10 Sur 0 983.6 1.1 36
2019-04-13 09:00:00 11.9 4 Sur 7 Sur 0 983.9 1.6 43
2019-04-13 08:00:00 10.5 0 Calma 8 Sudoeste 0 983 0.6 46
2019-04-13 07:00:00 10.5 5 Sudoeste 9 Sudoeste 0 982.5 -0.1 46
2019-04-13 06:00:00 9.9 2 Sur 8 Sur 0 982.3 -0.9 46
2019-04-13 05:00:00 10.2 0 Calma 7 Oeste 0 982.4 -1.1 43
2019-04-13 04:00:00 10.5 0 Calma 4 Sur 0 982.6 -0.7 46
2019-04-13 03:00:00 10.9 0 Calma 6 Oeste 0 983.2 0 44
2019-04-13 02:00:00 11.6 0 Calma 6 Noroeste 0 983.5 0.7 47
2019-04-13 01:00:00 11.7 0 Calma 7 Sudoeste 0 983.3 1.2 48
2019-04-13 00:00:00 12 2 Noroeste 7 Noroeste 0 983.2 2.2 53
2019-04-12 23:00:00 13.6 0 Calma 16 Nordeste 0 982.8 2.3 50
2019-04-12 22:00:00 13.9 6 Este 16 Nordeste 0 982.1 2.3 46
2019-04-12 21:00:00 15 7 Este 31 Sudeste 0 981 1.2 40
2019-04-12 20:00:00 17.4 8 Este 20 Este 0 980.5 0.7 27
2019-04-12 19:00:00 19.4 10 Sur 24 Sudoeste 0 979.8 -0.6 22
2019-04-12 18:00:00 20 13 Sur 29 Sudeste 0 979.8 -1 23
2019-04-12 17:00:00 20.3 12 Sur 34 Sur 0 979.8 -1.5 23
2019-04-12 16:00:00 19.7 16 Sur 33 Sudoeste 0 980.4 -1.3 23
2019-04-12 15:00:00 20.2 14 Sur 33 Sudoeste 0 980.8 -1.2 21
2019-04-12 14:00:00 20.7 17 Oeste 31 Noroeste 0 981.3 -0.7 18
2019-04-12 13:00:00 19.8 13 Noroeste 37 Oeste 0 981.7 -0.3 21
2019-04-12 12:00:00 19.2 19 Oeste 40 Oeste 0 982 -0.7 22
2019-04-12 11:00:00 17.5 12 Noroeste 22 Noroeste 0 982 0.1 27
2019-04-12 10:00:00 14.7 3 Sur 8 Sudoeste 0 982 0.2 34
2019-04-12 09:00:00 11.1 0 Calma 8 Sur 0 982.7 1.1 42
2019-04-12 08:00:00 8.4 3 Noroeste 7 Oeste 0 981.9 0 46
2019-04-12 07:00:00 9.4 0 Calma 6 Sur 0 981.8 -0.2 41
2019-04-12 06:00:00 9.8 2 Sur -- -- -- 981.6 -0.6 42
2019-04-12 05:00:00 10.5 0 Calma 7 Norte 0 981.9 -0.8 39
2019-04-12 04:00:00 10.9 0 Calma 9 Sudoeste 0 982 -0.6 38
2019-04-12 03:00:00 11.5 3 Noroeste 10 Oeste 0 982.2 -0.4 37
2019-04-12 02:00:00 11.8 3 Oeste 9 Oeste 0 982.7 0.5 38
2019-04-12 01:00:00 12.4 0 Calma 7 Noroeste 0 982.6 0.9 38
2019-04-12 00:00:00 11.8 0 Calma 8 Este 0 982.6 1.7 49
2019-04-11 23:00:00 12.5 0 Calma 6 Oeste 0 982.2 1.7 45
2019-04-11 22:00:00 13.6 0 Calma 4 Noroeste 0 981.7 1.4 44
2019-04-11 21:00:00 14.5 3 Oeste 9 Sudoeste 0 980.9 0.8 40
2019-04-11 20:00:00 15.3 6 Sudoeste 15 Sudoeste 0 980.5 1 37
2019-04-11 19:00:00 15.1 10 Sur 27 Sur 0 980.3 0.6 40
2019-04-11 18:00:00 18.1 6 Sudeste 19 Sudeste 0 980.1 0.2 28
2019-04-11 17:00:00 16.8 12 Sur 28 Sur 0 979.5 -0.7 34
2019-04-11 16:00:00 18.8 6 Sudoeste 28 Oeste 0 979.7 -1.1 21
2019-04-11 15:00:00 20.3 13 Noroeste 33 Noroeste 0 979.9 -1.3 21
2019-04-11 14:00:00 20 17 Oeste 37 Oeste 0 980.2 -1 23
2019-04-11 13:00:00 18.8 16 Oeste 39 Oeste 0 980.8 -0.6 27
2019-04-11 12:00:00 17 20 Oeste 39 Noroeste 0 981.2 -0.3 31
2019-04-11 11:00:00 15.1 25 Oeste 40 Noroeste 0 981.2 0.4 37
2019-04-11 10:00:00 13.5 21 Oeste 38 Oeste 0 981.4 0.6 43
2019-04-11 09:00:00 11.4 12 Oeste 22 Noroeste 0 981.5 0.9 52
2019-04-11 08:00:00 8.2 8 Oeste 13 Oeste 0 980.8 0.2 64
2019-04-11 07:00:00 8.1 5 Oeste 15 Noroeste 0 980.8 0.1 63
2019-04-11 06:00:00 8.6 9 Oeste 18 Sudoeste 0 980.6 -0.3 62
2019-04-11 05:00:00 9.8 3 Sur 21 Sudoeste 0 980.6 -0.7 56
2019-04-11 04:00:00 9.3 2 Sudeste 25 Oeste 0 980.7 -0.4 59
2019-04-11 03:00:00 9.6 13 Oeste 31 Noroeste 0 980.9 -0.1 59
2019-04-11 02:00:00 9.1 9 Sudoeste 34 Oeste 0 981.3 0 65
2019-04-11 01:00:00 8.9 12 Oeste 29 Sudoeste 0 981.1 0.6 68
2019-04-11 00:00:00 9.3 19 Oeste 32 Oeste 0 981 1.3 69
2019-04-10 23:00:00 10.8 9 Noroeste 43 Norte 0.6 981.3 2.8 62
2019-04-10 22:00:00 13.8 8 Norte 19 Norte 0 980.5 2.5 37
2019-04-10 21:00:00 14.2 8 Este 30 Oeste 0 979.7 2.3 33
2019-04-10 20:00:00 16.3 14 Noroeste 39 Sudoeste 0 978.5 1 25
2019-04-10 19:00:00 17.5 21 Noroeste 49 Oeste 0 978 0.3 24
2019-04-10 18:00:00 17.4 30 Oeste 53 Oeste 0 977.4 -0.5 24
2019-04-10 17:00:00 19 22 Noroeste 53 Oeste 0 977.5 -1.2 22
2019-04-10 16:00:00 18.6 23 Noroeste 50 Noroeste 0 977.7 -1.3 23
2019-04-10 15:00:00 18.3 20 Noroeste 52 Noroeste 0 977.9 -1.8 24
2019-04-10 14:00:00 18 25 Oeste 55 Oeste 0 978.7 -1.4 26
2019-04-10 13:00:00 16.7 28 Oeste 51 Noroeste 0 979 -0.8 29
2019-04-10 12:00:00 16.1 24 Oeste 51 Oeste 0 979.7 -0.2 32
2019-04-10 11:00:00 14.2 23 Noroeste 47 Oeste 0 980.1 1.2 37
2019-04-10 10:00:00 13.8 16 Noroeste 49 Noroeste 0 979.8 0.8 40
2019-04-10 09:00:00 12.2 24 Oeste 39 Oeste 0 979.9 1 45
2019-04-10 08:00:00 11.3 22 Oeste 42 Oeste 0 978.9 -0.4 47
2019-04-10 07:00:00 11.2 22 Oeste 37 Oeste 0 979 -0.4 50
2019-04-10 06:00:00 11.4 19 Noroeste 41 Noroeste 0 978.9 -0.9 49
2019-04-10 05:00:00 11.4 12 Noroeste 29 Oeste 0 979.3 -0.9 49
2019-04-10 04:00:00 12.5 17 Noroeste 30 Oeste 0 979.4 -0.8 44
2019-04-10 03:00:00 12.6 11 Noroeste 22 Noroeste 0 979.8 -0.5 45
2019-04-10 02:00:00 12.3 6 Oeste 21 Noroeste 0 980.2 0.1 46
2019-04-10 01:00:00 12.8 10 Noroeste 28 Noroeste 0 980.2 0.6 44
2019-04-10 00:00:00 13.5 9 Oeste 27 Noroeste 0 980.3 1.3 40
2019-04-09 23:00:00 14 14 Noroeste 45 Noroeste 0 980.1 1.8 37
2019-04-09 22:00:00 14.6 21 Noroeste 42 Noroeste 0 979.6 1.6 34
2019-04-09 21:00:00 15.3 20 Noroeste 41 Oeste 0 979 1.1 31
2019-04-09 20:00:00 16.9 18 Noroeste 54 Noroeste 0 978.3 0.5 27
2019-04-09 19:00:00 17.7 25 Oeste 55 Noroeste 0 978 0 24
2019-04-09 18:00:00 17.9 22 Noroeste 48 Noroeste 0 977.9 -1 24
2019-04-09 17:00:00 18.6 20 Noroeste 54 Noroeste 0 977.8 -1.6 27
2019-04-09 16:00:00 18.8 16 Noroeste 49 Noroeste 0 978 -2.4 22
2019-04-09 15:00:00 18.7 24 Noroeste 56 Oeste 0 978.9 -2 23
2019-04-09 14:00:00 17.5 21 Noroeste 47 Noroeste 0 979.4 -2.2 25
2019-04-09 13:00:00 17.2 24 Noroeste 44 Noroeste 0 980.4 -1.1 28
2019-04-09 12:00:00 16.1 19 Noroeste 53 Noroeste 0 980.9 -0.3 31
2019-04-09 11:00:00 14.6 21 Noroeste 44 Oeste 0 981.6 1.3 35
2019-04-09 10:00:00 13.8 16 Noroeste 45 Noroeste 0 981.5 1.6 39
2019-04-09 09:00:00 12.4 12 Noroeste 26 Noroeste 0 981.2 1.6 45
2019-04-09 08:00:00 11.1 8 Norte 22 Oeste 0 980.3 0.4 48
2019-04-09 07:00:00 10.7 6 Oeste 18 Norte 0 979.9 0.4 50
2019-04-09 06:00:00 12.2 9 Noroeste 34 Noroeste 0 979.6 0.1 47
2019-04-09 05:00:00 13.2 9 Noroeste 32 Noroeste 0 979.9 0.3 43
2019-04-09 04:00:00 13.3 3 Nordeste 31 Noroeste 0 979.5 0.3 42
2019-04-09 03:00:00 14.2 12 Noroeste 44 Noroeste 0 979.5 0.5 40
2019-04-09 02:00:00 15 14 Noroeste 38 Noroeste 0 979.6 0.4 35
2019-04-09 01:00:00 15.5 9 Oeste 27 Noroeste 0 979.2 -0.1 36
2019-04-09 00:00:00 16.2 15 Noroeste 28 Noroeste 0 979 0.5 41
2019-04-08 23:00:00 15.5 10 Oeste 25 Noroeste 0 979.2 1.3 50
2019-04-08 22:00:00 15.5 17 Noroeste 51 Oeste 0 979.3 1.4 46
2019-04-08 21:00:00 17.7 14 Norte 31 Noroeste 0 978.5 0.8 32
2019-04-08 20:00:00 18.6 18 Noroeste 37 Oeste 0 977.9 0.6 30
2019-04-08 19:00:00 20.6 22 Noroeste 42 Oeste 0 977.9 0.1 27
2019-04-08 18:00:00 21.2 23 Noroeste 50 Oeste 0 977.7 -1.2 27
2019-04-08 17:00:00 21.8 9 Noroeste 39 Sudoeste 0 977.3 -2 25
2019-04-08 16:00:00 22.6 17 Noroeste 36 Noroeste 0 977.8 -1.6 25
2019-04-08 15:00:00 21.4 17 Noroeste 44 Noroeste 0 978.9 -1.3 27
2019-04-08 14:00:00 20.3 17 Noroeste 45 Oeste 0 979.3 -1.1 30
2019-04-08 13:00:00 19.6 16 Noroeste 49 Oeste 0 979.4 -1 31
2019-04-08 12:00:00 18.3 24 Noroeste 46 Noroeste 0 980.2 -0.3 30
2019-04-08 11:00:00 16.9 17 Noroeste 36 Noroeste 0 980.4 0.5 34
2019-04-08 10:00:00 14.9 9 Noroeste 23 Noroeste 0 980.4 0.8 48
2019-04-08 09:00:00 13.3 7 Oeste 15 Oeste 0 980.5 1.1 58
2019-04-08 08:00:00 11.9 4 Oeste 11 Oeste 0 979.9 0.1 66
2019-04-08 07:00:00 11.8 0 Calma 9 Sudoeste 0 979.6 -0.1 67
2019-04-08 06:00:00 11.4 3 Sur 8 Sudoeste 0 979.4 -0.9 70
2019-04-08 05:00:00 11.3 0 Calma 11 Noroeste 0 979.8 -1.3 70
2019-04-08 04:00:00 11.8 8 Oeste 17 Noroeste 0 979.7 -1.7 66
2019-04-08 03:00:00 12.3 7 Oeste 15 Noroeste 0 980.3 -1.2 60
2019-04-08 02:00:00 12.7 2 Sur 5 Sur 0 981.1 -0.2 56
2019-04-08 01:00:00 13.3 0 Calma 5 Sudoeste 0 981.4 0.4 51
2019-04-08 00:00:00 13.1 2 Sudoeste 16 Noroeste 0 981.5 1 49
2019-04-07 23:00:00 13.1 9 Noroeste 17 Noroeste 0 981.3 1.4 48
2019-04-07 22:00:00 13.4 10 Norte 24 Norte 0 981 1.6 43
2019-04-07 21:00:00 14.2 14 Noroeste 28 Noroeste 0 980.5 1.8 37
2019-04-07 20:00:00 15.4 15 Oeste 30 Noroeste 0 979.9 1 30
2019-04-07 19:00:00 16.2 19 Noroeste 34 Noroeste 0 979.4 1.3 28
2019-04-07 18:00:00 16.2 23 Oeste 43 Noroeste 0 978.7 0.3 25
2019-04-07 17:00:00 16.9 24 Oeste 52 Noroeste 0 978.9 0.4 24
2019-04-07 16:00:00 16.3 29 Noroeste 67 Noroeste 0 978.1 -0.3 24
2019-04-07 15:00:00 16.4 29 Oeste 53 Noroeste 0 978.4 0.2 26
2019-04-07 14:00:00 15.1 23 Oeste 49 Oeste 0 978.5 1.5 29
2019-04-07 13:00:00 14.5 31 Oeste 58 Noroeste 0 978.4 2 29
2019-04-07 12:00:00 13.8 29 Noroeste 63 Noroeste 0 978.2 2.5 31
2019-04-07 11:00:00 13.9 30 Noroeste 55 Noroeste 0 977 2.3 33
2019-04-07 10:00:00 12.8 17 Noroeste 54 Noroeste 0 976.4 2.4 37
2019-04-07 09:00:00 11.3 27 Oeste 49 Noroeste 0 975.7 1.6 38
2019-04-07 08:00:00 9.9 13 Oeste 57 Noroeste 0 974.7 0.9 44
2019-04-07 07:00:00 10.3 24 Noroeste 51 Noroeste 0 974 0.4 44
2019-04-07 06:00:00 9.5 22 Oeste 55 Noroeste 0 974.1 0.2 47
2019-04-07 05:00:00 9.9 26 Oeste 40 Oeste 0 973.8 0 46
2019-04-07 04:00:00 9.6 22 Oeste 38 Noroeste 0 973.6 -0.2 45
2019-04-07 03:00:00 9.3 17 Oeste 43 Noroeste 0 973.9 -0.1 46
2019-04-07 02:00:00 9.6 28 Noroeste 52 Noroeste 0 973.8 -0.4 46
2019-04-07 01:00:00 9.5 10 Sudoeste 40 Sudoeste 0 973.8 -0.6 47
2019-04-07 00:00:00 7.7 18 Sudoeste 44 Sudoeste 0 974 0.6 53
2019-04-06 23:00:00 8.1 3 Sudoeste 24 Noroeste 0 974.2 1.4 52
2019-04-06 22:00:00 10.1 18 Noroeste 35 Noroeste 0 974.4 2.3 46
2019-04-06 21:00:00 9.9 8 Oeste 26 Oeste 0 973.4 2.6 51
2019-04-06 20:00:00 9.9 15 Oeste 32 Oeste 0 972.8 2.3 57
2019-04-06 19:00:00 9.5 18 Oeste 91 Sudoeste 0 972.1 1.4 72
2019-04-06 18:00:00 15.4 28 Oeste 57 Oeste 0 970.8 -0.9 24
2019-04-06 17:00:00 15.1 38 Oeste 64 Oeste 0 970.5 -1.2 24
2019-04-06 16:00:00 15.5 25 Oeste 50 Oeste 0 970.7 -1 29
2019-04-06 15:00:00 12.9 26 Noroeste 57 Oeste 0 971.7 -1.1 32
2019-04-06 14:00:00 16 28 Oeste 49 Oeste 0 971.7 -0.7 21
2019-04-06 13:00:00 16.1 25 Oeste 51 Noroeste 0 971.7 -0.9 24
2019-04-06 12:00:00 14.1 14 Noroeste 50 Noroeste 0 972.8 1.1 29
2019-04-06 11:00:00 13 29 Oeste 51 Oeste 0 972.4 1.6 31
2019-04-06 10:00:00 10.9 14 Oeste 28 Sudoeste 0 972.6 2.2 36
2019-04-06 09:00:00 9.8 14 Sudoeste 29 Sudoeste 0 971.7 1.8 40
2019-04-06 08:00:00 8.5 8 Sudoeste 48 Oeste 0 970.8 1.7 44
2019-04-06 07:00:00 8.3 7 Noroeste 31 Noroeste 0 970.4 0.7 44
2019-04-06 06:00:00 8.9 19 Noroeste 55 Noroeste 0 969.9 0 42
2019-04-06 05:00:00 8.6 25 Noroeste 51 Noroeste 0 969.1 -1 44
2019-04-06 04:00:00 8.7 13 Oeste 36 Noroeste 0 969.7 -0.7 43
2019-04-06 03:00:00 8.4 0 Calma 13 Oeste 0 969.9 0 40
2019-04-06 02:00:00 9.4 10 Oeste 18 Sudoeste 0 970.1 0.6 38
2019-04-06 01:00:00 8.9 10 Sudoeste 41 Oeste 0 970.4 1.4 40
2019-04-06 00:00:00 9.2 12 Oeste 28 Oeste 0 969.9 1.6 40
2019-04-05 23:00:00 8.5 9 Oeste 29 Oeste 0 969.5 2.9 43
2019-04-05 22:00:00 9.3 19 Oeste 39 Noroeste 0 969 2.7 40
2019-04-05 21:00:00 10.3 11 Noroeste 60 Noroeste 0 968.3 1.7 36
2019-04-05 20:00:00 13.9 18 Oeste 55 Noroeste 0 966.6 0.1 33
2019-04-05 19:00:00 12.9 13 Sudoeste 25 Sur 0 966.3 -0.5 40
2019-04-05 18:00:00 13 14 Oeste 34 Sudoeste 0 966.6 -0.7 37
2019-04-05 17:00:00 12.8 15 Oeste 62 Noroeste 0 966.5 0.9 34
2019-04-05 16:00:00 13.6 22 Noroeste 42 Noroeste 0 966.8 -0.7 38
2019-04-05 15:00:00 12.5 23 Noroeste 58 Oeste 0 967.3 -0.6 38
2019-04-05 14:00:00 16 25 Sudoeste 37 Sudoeste 0 965.6 -2.2 29
2019-04-05 13:00:00 16.1 12 Sudoeste 28 Sudoeste 0 967.5 -1 28
2019-04-05 12:00:00 14.5 7 Sur 20 Sur 0 967.9 -0.9 27
2019-04-05 11:00:00 14.5 8 Oeste 21 Sudoeste 0 967.8 -0.3 30
2019-04-05 10:00:00 12 6 Sudoeste 13 Sudoeste 0 968.5 0.3 37
2019-04-05 09:00:00 10.7 0 Calma 7 Sur 0 968.8 0.8 53
2019-04-05 08:00:00 7.5 0 Calma 5 Oeste 0 968.1 -0.4 82
2019-04-05 07:00:00 7.8 0 Calma 6 Oeste 0 968.2 -0.9 82
2019-04-05 06:00:00 8.4 0 Calma 3 Noroeste 0 968 -1.6 82
2019-04-05 05:00:00 9.4 0 Calma 6 Noroeste 0 968.5 -1.2 82
2019-04-05 04:00:00 9.7 2 Oeste 5 Noroeste 0 969.1 -0.7 81
2019-04-05 03:00:00 11.1 0 Calma 2 Nordeste 0 969.6 -0.5 76
2019-04-05 02:00:00 11.1 0 Calma 4 Norte 0 969.7 -0.5 76
2019-04-05 01:00:00 11.1 0 Calma 7 Sudeste 0 969.8 0 76
2019-04-05 00:00:00 11.2 5 Sur 11 Sur 0 970.1 0.5 74
2019-04-04 23:00:00 11.4 5 Sur 14 Sur 0 970.2 0.5 68
2019-04-04 22:00:00 11.4 8 Sur 19 Sur 0 969.8 0.2 61
2019-04-04 21:00:00 11.5 8 Sur 22 Sur 0 969.6 0 59
2019-04-04 20:00:00 11.6 11 Sur 22 Sur 0 969.7 0.2 57
2019-04-04 19:00:00 11.9 9 Sur 23 Sur 0 969.6 -0.1 55
2019-04-04 18:00:00 12 12 Sur 28 Sudoeste 0 969.6 -0.4 53
2019-04-04 17:00:00 13.2 12 Sur 24 Sudoeste 0 969.5 -1.1 52
2019-04-04 16:00:00 13.3 12 Sur 25 Sudoeste 0 969.7 -1 51
2019-04-04 15:00:00 13.8 14 Sudoeste 27 Sudoeste 0 970 -1.2 52
2019-04-04 14:00:00 13.9 13 Sudoeste 25 Sudoeste 0 970.6 0.4 50
2019-04-04 13:00:00 13.6 8 Sur 22 Sudoeste 0 970.7 0.4 49
2019-04-04 12:00:00 12.7 7 Sur 14 Sudeste 0 971.2 1.2 46
2019-04-04 11:00:00 13.8 5 Sudeste 14 Este 0 970.2 1.1 44
2019-04-04 10:00:00 13.3 0 Calma 12 Sudeste 0 970.3 2 57
2019-04-04 09:00:00 10.6 5 Este 13 Sudeste 0 970 2.2 70
2019-04-04 08:00:00 9.6 0 Calma 10 Norte 0 969.1 1.7 77
2019-04-04 07:00:00 10.7 0 Calma 10 Este 0 968.3 0.9 46
2019-04-04 06:00:00 12.2 3 Este 21 Noroeste 0 967.8 0.5 38
2019-04-04 05:00:00 12.4 8 Noroeste 19 Noroeste 0 967.4 -0.1 39
2019-04-04 04:00:00 13.5 2 Este 15 Norte 0 967.4 -0.4 37
2019-04-04 03:00:00 13.9 3 Norte 10 Sudoeste 0 967.3 -0.3 35
2019-04-04 02:00:00 15.5 0 Calma 18 Noroeste 0 967.5 0.1 31
2019-04-04 01:00:00 16.2 8 Noroeste 36 Noroeste 0 967.8 0.8 28
2019-04-04 00:00:00 16.5 6 Oeste 21 Noroeste 0 967.6 1.4 26
2019-04-03 23:00:00 18.2 15 Noroeste 32 Norte 0 967.4 1.7 24
2019-04-03 22:00:00 19 16 Noroeste 33 Norte 0 967 1.5 23
2019-04-03 21:00:00 20.5 14 Noroeste 38 Noroeste 0 966.2 0.2 21
2019-04-03 20:00:00 22.5 14 Noroeste 40 Oeste 0 965.7 -1.3 21
2019-04-03 19:00:00 22.7 10 Sudoeste 27 Sudoeste 0 965.5 -2.8 27
2019-04-03 18:00:00 22.4 13 Sudoeste 25 Sudoeste 0 966 -3.7 27
2019-04-03 17:00:00 22.9 11 Sur 24 Sur 0 967 -3.9 24
2019-04-03 16:00:00 21.8 12 Sur 30 Sur 0 968.3 -3.6 27
2019-04-03 15:00:00 19.9 17 Sur 31 Sudoeste 0 969.7 -2.8 32
2019-04-03 14:00:00 19.4 13 Sur 27 Sudoeste 0 970.9 -2.1 30
2019-04-03 13:00:00 20.8 8 Sur 23 Sudoeste 0 971.9 -2.2 24
2019-04-03 12:00:00 21.1 2 Este 8 Sudeste 0 972.5 -2.7 29
2019-04-03 11:00:00 20.1 0 Calma 6 Sudeste 0 973 -2.5 36
2019-04-03 10:00:00 14.6 0 Calma 4 Sudeste 0 974.1 -1.6 51
2019-04-03 09:00:00 13 0 Calma 3 Noroeste 0 975.2 -0.8 59
2019-04-03 08:00:00 9.9 0 Calma 4 Noroeste 0 975.5 -1 69
2019-04-03 07:00:00 10.3 0 Calma 6 Sudoeste 0 975.7 -1.3 66
2019-04-03 06:00:00 10.7 0 Calma 4 Sudoeste 0 976 -1.8 65
2019-04-03 05:00:00 11.7 0 Calma 9 Norte 0 976.5 -1.8 56
2019-04-03 04:00:00 12.6 3 Noroeste 6 Oeste 0 977 -1.7 52
2019-04-03 03:00:00 12.4 0 Calma 6 Noroeste 0 977.8 -1 56
2019-04-03 02:00:00 12.7 4 Oeste 6 Oeste 0 978.3 -0.8 63
2019-04-03 01:00:00 13.2 0 Calma 5 Oeste 0 978.7 0.1 69
2019-04-03 00:00:00 13.6 0 Calma 6 Oeste 0 978.8 0.7 68
2019-04-02 23:00:00 14 0 Calma 5 Noroeste 0 979.1 1.3 69
2019-04-02 22:00:00 15 0 Calma 10 Nordeste 0 978.6 0.9 66
2019-04-02 21:00:00 15.2 4 Este 15 Este 0 978.1 0.5 59
2019-04-02 20:00:00 17.1 6 Este 14 Sudoeste 0 977.8 -0.3 45
2019-04-02 19:00:00 18.5 6 Sur 15 Sudoeste 0 977.7 -0.7 37
2019-04-02 18:00:00 19.1 8 Sur 22 Sudoeste 0 977.6 -1.6 35
2019-04-02 17:00:00 18.9 8 Sur 25 Sudoeste 0 978.1 -2 42
2019-04-02 16:00:00 19.5 12 Sudoeste 25 Sudoeste 0 978.4 -2.3 39
2019-04-02 15:00:00 18.8 12 Sur 28 Sudoeste 0 979.2 -2.1 37
2019-04-02 14:00:00 19.3 8 Sur 22 Sudoeste 0 980.1 -1.3 31
2019-04-02 13:00:00 18.8 6 Sudoeste 21 Sudoeste 0 980.7 -0.8 28
2019-04-02 12:00:00 18.6 2 Oeste 13 Oeste 0 981.3 -0.6 38
2019-04-02 11:00:00 16.4 0 Calma 3 Sudeste 0 981.4 0.1 54
2019-04-02 10:00:00 13.3 0 Calma 4 Sudoeste 0 981.5 0.1 74
2019-04-02 09:00:00 10.7 0 Calma 4 Sudoeste 0 981.9 0.6 83
2019-04-02 08:00:00 8.5 0 Calma 5 Sur 0 981.3 -0.4 83
2019-04-02 07:00:00 9.6 0 Calma 4 Sudoeste 0 981.4 -0.5 82
2019-04-02 06:00:00 10.5 0 Calma 6 Norte 0 981.3 -0.9 82
2019-04-02 05:00:00 11.7 0 Calma 5 Oeste 0 981.7 -0.9 82
2019-04-02 04:00:00 11.8 0 Calma 6 Oeste 0 981.9 -0.7 82
2019-04-02 03:00:00 11.8 0 Calma 4 Este 0 982.2 -0.2 82
2019-04-02 02:00:00 12.2 0 Calma 3 Este 0 982.6 0.7 82
2019-04-02 01:00:00 12.2 0 Calma 3 Sudeste 0 982.6 1.2 82
2019-04-02 00:00:00 12.6 0 Calma 9 Este 0 982.4 2 82
2019-04-01 23:00:00 12.4 3 Este 12 Nordeste 0 981.9 2.1 82
2019-04-01 22:00:00 12.4 0 Calma 5 Este 0 981.4 2.2 81
2019-04-01 21:00:00 12.2 0 Calma 8 Oeste 0 980.4 0.4 80
2019-04-01 20:00:00 12.9 0 Calma 21 Oeste 0.2 979.8 0.5 78
2019-04-01 19:00:00 12.2 9 Sur 31 Sudoeste 0.2 979.2 0.4 81
2019-04-01 18:00:00 13.7 11 Sudoeste 19 Sur 0.5 980 0.9 78
2019-04-01 17:00:00 15.8 8 Sur 22 Sur 0 979.3 0.1 57
2019-04-01 16:00:00 17.4 9 Sur 26 Sudeste 0 978.8 -1.1 54
2019-04-01 15:00:00 17 11 Sur 28 Sudoeste 0 979.1 -1.3 54
2019-04-01 14:00:00 18.3 5 Sur 20 Sudoeste 0 979.2 -0.4 41
2019-04-01 13:00:00 17.9 3 Sudoeste 17 Sudoeste 0 979.9 0.6 44
2019-04-01 12:00:00 16.1 3 Sur 15 Sudoeste 0 980.4 1.1 49
2019-04-01 11:00:00 15.8 0 Calma 9 Sudoeste 0 979.6 1.1 60
2019-04-01 10:00:00 14.3 0 Calma 7 Sudoeste 0 979.3 1.1 75
2019-04-01 09:00:00 11.1 0 Calma 6 Este 0 979.3 1.3 83
2019-04-01 08:00:00 10.1 0 Calma 5 Sudoeste 0 978.5 0.4 83
2019-04-01 07:00:00 10.8 0 Calma 5 Norte 0 978.2 0 82
2019-04-01 06:00:00 10.8 0 Calma -- -- 0 978 -0.3 82
2019-04-01 05:00:00 11.1 0 Calma 0 Calma 0 978.1 -0.4 82
2019-04-01 04:00:00 11.2 0 Calma 5 Sur 0 978.2 -0.1 82
2019-04-01 03:00:00 11.1 0 Calma 8 Oeste 0 978.3 0.3 82
2019-04-01 02:00:00 11.1 3 Oeste 10 Noroeste 0 978.5 0.6 83
2019-04-01 01:00:00 11.3 0 Calma 0 Calma 0 978.3 0.7 83
2019-04-01 00:00:00 11.3 0 Calma 2 Oeste 0 978 1.2 83
2019-03-31 23:00:00 11.4 0 Calma 0 Calma 0 977.9 1.5 83
2019-03-31 22:00:00 11.4 0 Calma 2 Oeste 0 977.6 1.3 83
2019-03-31 21:00:00 11.4 0 Calma 0 Calma 0.1 976.8 0.4 83
2019-03-31 20:00:00 11.5 0 Calma 0 Calma 0 976.4 0.1 83
2019-03-31 19:00:00 11.5 0 Calma 7 Oeste 0 976.3 -0.1 83
2019-03-31 18:00:00 11.3 0 Calma 11 Oeste 0.1 976.4 -0.6 83
2019-03-31 17:00:00 11.1 5 Noroeste 13 Noroeste 0 976.3 -1.3 83
2019-03-31 16:00:00 10.9 2 Noroeste 8 Oeste 0 976.4 -1.7 83
2019-03-31 15:00:00 10.5 0 Calma 9 Oeste 0.2 977 -1.8 83
2019-03-31 14:00:00 10.2 2 Oeste 8 Noroeste 0.3 977.6 -1.1 83
2019-03-31 13:00:00 10.1 2 Noroeste 11 Oeste 0.5 978.1 -0.5 83
2019-03-31 12:00:00 9.8 4 Oeste 6 Oeste 0.5 978.8 0.2 83
2019-03-31 11:00:00 9.7 0 Calma 0 Calma 0.5 978.7 -0.1 83
2019-03-31 10:00:00 9.2 0 Calma 6 Oeste 0.9 978.6 -0.2 83
2019-03-31 09:00:00 9.1 0 Calma 3 Sudoeste 0 978.6 -0.9 83
2019-03-31 08:00:00 8.9 0 Calma 2 Sudoeste 0 978.8 -0.9 83
2019-03-31 07:00:00 8.8 0 Calma 7 Nordeste 0.5 978.8 -1.8 83
2019-03-31 06:00:00 8.9 0 Calma 6 Sudeste 1.1 979.5 -1.9 83
2019-03-31 05:00:00 9.5 0 Calma 15 Sudeste 0.4 979.7 -2.9 82
2019-03-31 03:00:00 10.1 5 Nordeste 15 Nordeste 0.3 981.4 -2.3 78
2019-03-31 01:00:00 10.5 4 Este 16 Nordeste 0.2 982.6 -1.2 75
2019-03-31 00:00:00 11.1 6 Este 21 Nordeste 0 983.5 0.5 64
2019-03-30 23:00:00 11.4 6 Este 17 Nordeste 0 983.7 0.8 62
2019-03-30 22:00:00 11.8 8 Este 22 Nordeste 0 983.8 1.1 59
2019-03-30 21:00:00 12.3 7 Este 16 Este 0 983 0.1 57
2019-03-30 20:00:00 12.4 0 Calma 9 Sudoeste 0 982.9 0 67
2019-03-30 19:00:00 13.4 2 Este 15 Sudeste 0 982.7 -0.4 61
2019-03-30 18:00:00 14.1 7 Este 19 Este 0 982.9 -0.6 55
2019-03-30 17:00:00 15.2 8 Este 21 Este 0 982.9 -1.2 49
2019-03-30 16:00:00 16.4 7 Este 22 Sudoeste 0 983.1 -1.9 46
2019-03-30 15:00:00 15.5 6 Sudeste 23 Sudeste 0 983.5 -2.7 46
2019-03-30 14:00:00 15.6 8 Sudeste 23 Sur 0 984.1 -3 46
2019-03-30 13:00:00 16.5 6 Sudeste 28 Este 0 985 -2.7 43
2019-03-30 12:00:00 14.3 10 Este 24 Este 0 986.2 -1.6 44
2019-03-30 11:00:00 13.7 8 Este 22 Nordeste 0 987.1 -0.2 47
2019-03-30 10:00:00 12.4 6 Este 21 Nordeste 0 987.7 0.6 56
2019-03-30 09:00:00 8.6 0 Calma 6 Oeste 0 987.8 1 60
2019-03-30 08:00:00 7.1 0 Calma 5 Oeste 0 987.3 0.5 69
2019-03-30 07:00:00 5 0 Calma 4 Sudoeste 0 987.1 -0.4 75
2019-03-30 06:00:00 5.5 0 Calma 4 Noroeste 0 986.8 -1.1 73
2019-03-30 05:00:00 5.7 2 Oeste 5 Noroeste 0 986.8 -2.2 70
2019-03-30 04:00:00 6.1 0 Calma 5 Oeste 0 987.5 -1.9 69
2019-03-30 03:00:00 6.2 2 Oeste 7 Sudoeste 0 987.9 -1.9 69
2019-03-30 02:00:00 6.7 0 Calma 6 Norte 0 989 -1 69
2019-03-30 01:00:00 7.8 3 Noroeste 9 Oeste 0 989.4 -0.6 66
2019-03-30 00:00:00 8.4 0 Calma 6 Nordeste 0 989.8 0.3 65
2019-03-29 23:00:00 9.5 0 Calma 8 Este 0 990 1.4 61
2019-03-29 22:00:00 10.2 2 Este 13 Nordeste 0 990 1.8 55
2019-03-29 21:00:00 11.5 4 Nordeste 17 Nordeste 0 989.5 1.5 54
2019-03-29 20:00:00 12.6 3 Este 18 Sudeste 0 988.6 0.6 52
2019-03-29 19:00:00 13.2 6 Sudeste 22 Este 0 988.2 -0.1 56
2019-03-29 18:00:00 14.1 9 Sudeste 25 Este 0 988 -0.6 50
2019-03-29 17:00:00 14.7 9 Sudeste 28 Este 0 988 -1.2 46
2019-03-29 16:00:00 13.9 9 Sudeste 27 Este 0 988.3 -1.7 46
2019-03-29 15:00:00 15 10 Sudeste 28 Sudeste 0 988.6 -2.1 44
2019-03-29 14:00:00 16.1 10 Sudeste 26 Este 0 989.2 -2.4 42
2019-03-29 13:00:00 15 9 Sudeste 28 Sudeste 0 990 -1.6 40
2019-03-29 12:00:00 14.4 8 Este 29 Sudeste 0 990.7 -0.9 42
2019-03-29 11:00:00 13.3 11 Este 27 Sudeste 0 991.6 0.6 46
2019-03-29 10:00:00 12.1 3 Nordeste 16 Nordeste 0 991.6 1.4 56
2019-03-29 09:00:00 9.7 2 Sudoeste 8 Sudoeste 0 991.6 1.2 59
2019-03-29 08:00:00 7.6 0 Calma 8 Noroeste 0 991 0.9 62
2019-03-29 07:00:00 5.2 3 Noroeste 8 Noroeste 0 990.2 0.2 65
2019-03-29 06:00:00 5.2 2 Noroeste 8 Nordeste 0 990.4 0 63
2019-03-29 05:00:00 6.1 3 Noroeste 9 Noroeste 0 990.1 -0.5 61
2019-03-29 04:00:00 5.4 4 Noroeste 8 Noroeste 0 990 -1.1 62
2019-03-29 03:00:00 7.5 5 Este 10 Nordeste 0 990.4 -1 66
2019-03-29 02:00:00 6.7 5 Noroeste 8 Oeste 0 990.6 -0.9 62
2019-03-29 01:00:00 6.7 0 Calma 4 Noroeste 0 991.1 -0.9 74
2019-03-29 00:00:00 8 3 Noroeste 6 Noroeste 0 991.4 -0.4 72
2019-03-28 23:00:00 8.3 4 Nordeste 8 Nordeste 0 991.5 0.5 70
2019-03-28 22:00:00 10.1 0 Calma 6 Norte 0 992 1.5 66
2019-03-28 21:00:00 10.6 0 Calma 12 Sudeste 0 991.8 1.7 64
2019-03-28 20:00:00 11.2 5 Sudeste 14 Este 0 991 1.2 61
2019-03-28 19:00:00 13 6 Sudeste 26 Este 0 990.5 0.5 50
2019-03-28 18:00:00 14.2 10 Este 31 Este 0 990.1 -0.2 41
2019-03-28 17:00:00 15 12 Este 30 Este 0 989.8 -1.1 35
2019-03-28 16:00:00 15.4 11 Sudeste 26 Sudeste 0 990 -1.1 32
2019-03-28 15:00:00 15.6 9 Sudeste 23 Sudeste 0 990.3 -1.6 25
2019-03-28 14:00:00 16 11 Este 24 Este 0 990.9 -1.6 21
2019-03-28 13:00:00 15.9 9 Este 28 Este 0 991.1 -0.8 19
2019-03-28 12:00:00 15.7 10 Sudeste 24 Sudeste 0 991.9 -0.7 21
2019-03-28 11:00:00 15.2 7 Este 19 Sudeste 0 992.5 0.9 22
2019-03-28 10:00:00 15.7 0 Calma 4 Sudoeste 0 991.9 1.1 26
2019-03-28 09:00:00 9.7 0 Calma 6 Sudoeste 0 992.6 2 41
2019-03-28 08:00:00 6.2 0 Calma 5 Oeste 0 991.6 1.4 49
2019-03-28 07:00:00 3 0 Calma 4 Nordeste 0 990.8 0.4 57
2019-03-28 06:00:00 4.2 0 Calma 9 Noroeste 0 990.6 0 53
2019-03-28 05:00:00 5 3 Noroeste 8 Noroeste 0 990.2 -0.6 52
2019-03-28 04:00:00 5.8 5 Noroeste 7 Noroeste 0 990.4 -0.9 53
2019-03-28 03:00:00 6.8 3 Este 9 Este 0 990.6 -0.5 53
2019-03-28 02:00:00 6.8 0 Calma 4 Este 0 990.8 -0.3 53
2019-03-28 01:00:00 5.9 2 Noroeste 6 Noroeste 0 991.3 0.5 63
2019-03-28 00:00:00 8.4 0 Calma 5 Sudeste 0 991.1 1 59
2019-03-27 23:00:00 9.3 2 Este 8 Nordeste 0 991.1 2 56
2019-03-27 22:00:00 10.2 2 Nordeste 15 Nordeste 0 990.8 2.6 50
2019-03-27 21:00:00 11 3 Este 14 Este 0 990.1 2.4 50
2019-03-27 20:00:00 12 4 Sudeste 18 Sudeste 0 989.1 2 50
2019-03-27 19:00:00 13.1 8 Sudeste 27 Sudeste 0 988.2 1.1 46
2019-03-27 18:00:00 14.1 10 Sudeste 26 Sudeste 0 987.7 0.7 43
2019-03-27 17:00:00 15.6 8 Sudeste 30 Este 0 987.1 -0.2 39
2019-03-27 16:00:00 14.9 12 Sudeste 29 Sudeste 0 987.1 -0.5 36
2019-03-27 15:00:00 16.9 7 Sudeste 29 Este 0 987 -0.8 32
2019-03-27 14:00:00 16.7 9 Este 31 Nordeste 0 987.3 -1 28
2019-03-27 13:00:00 15.8 12 Este 32 Este 0 987.6 -0.2 28
2019-03-27 12:00:00 14.7 9 Este 29 Este 0 987.8 -0.2 30
2019-03-27 11:00:00 13.7 14 Este 34 Este 0 988.3 0.6 33
2019-03-27 10:00:00 12.9 11 Este 31 Nordeste 0 987.8 0.4 40
2019-03-27 09:00:00 11.9 8 Este 21 Este 0 988 0.7 46
2019-03-27 08:00:00 8.7 0 Calma 6 Sudoeste 0 987.7 0.9 56
2019-03-27 07:00:00 6.2 0 Calma 8 Noroeste 0 987.4 0.4 62
2019-03-27 06:00:00 6.2 0 Calma 6 Noroeste 0 987.3 -0.1 65
2019-03-27 05:00:00 6.7 0 Calma 8 Sudoeste 0 986.8 -0.7 62
2019-03-27 04:00:00 6.9 0 Calma 4 Sudeste 0 987 -0.7 68
2019-03-27 03:00:00 8.5 2 Nordeste 11 Nordeste 0 987.4 -0.1 61
2019-03-27 02:00:00 9 3 Nordeste 33 Nordeste 0 987.5 0.4 64
2019-03-27 01:00:00 9.7 9 Nordeste 21 Este 0 987.7 1.9 56
2019-03-27 00:00:00 9.4 4 Este 16 Este 0 987.5 2.4 55
2019-03-26 23:00:00 10.2 4 Este 29 Este 0 987.1 2.6 50
2019-03-26 22:00:00 10.9 8 Este 28 Nordeste 0 985.8 2 51
2019-03-26 21:00:00 11.3 11 Este 28 Nordeste 0 985.1 1.3 53
2019-03-26 20:00:00 12.3 6 Este 29 Nordeste 0 984.5 1.2 52
2019-03-26 19:00:00 13 8 Este 30 Sudeste 0 983.8 0.7 62
2019-03-26 18:00:00 13.1 12 Este 37 Sudeste 0 983.8 0.8 66
2019-03-26 17:00:00 13.7 13 Sudeste 34 Sudeste 0 983.3 0.2 63
2019-03-26 16:00:00 15.3 12 Sudeste 35 Sudeste 0 983.1 -0.6 50
2019-03-26 15:00:00 16.5 14 Este 32 Este 0 983 -0.6 41
2019-03-26 14:00:00 16.5 13 Este 35 Este 0 983.1 -0.9 37
2019-03-26 13:00:00 16.9 11 Este 32 Este 0 983.7 0.4 37
2019-03-26 12:00:00 17.6 12 Este 36 Este 0 983.6 0.7 33
2019-03-26 11:00:00 16.5 13 Este 35 Este 0 984 1.6 29
2019-03-26 10:00:00 15.2 13 Este 35 Nordeste 0 983.3 1.7 28
2019-03-26 09:00:00 13.5 0 Calma 7 Nordeste 0 982.9 1.9 39
2019-03-26 08:00:00 9 0 Calma 6 Este 0 982.4 1.2 51
2019-03-26 07:00:00 8.8 4 Norte 6 Noroeste 0 981.6 0 46
2019-03-26 06:00:00 7.4 2 Noroeste 11 Nordeste 0 981 -0.8 58
2019-03-26 05:00:00 8.1 0 Calma 4 Noroeste 0 981.2 -1.2 54
2019-03-26 04:00:00 8 0 Calma 0 Calma 0 981.6 -0.9 60
2019-03-26 03:00:00 8.6 0 Calma 8 Noroeste 0 981.8 -1.1 57
2019-03-26 02:00:00 9.6 6 Noroeste 8 Noroeste 0 982.4 -0.7 54
2019-03-26 01:00:00 10.2 3 Noroeste 6 Noroeste 0 982.5 -0.6 56
2019-03-26 00:00:00 10.2 0 Calma 4 Este 0 982.9 0.1 56
2019-03-25 23:00:00 11.3 0 Calma 5 Noroeste 0 983.1 0.8 46
2019-03-25 22:00:00 12.3 0 Calma 5 Noroeste 0 983.1 1 39
2019-03-25 21:00:00 13.7 0 Calma 8 Noroeste 0 982.8 1 35
2019-03-25 20:00:00 15.1 0 Calma 18 Este 0 982.3 0.8 33
2019-03-25 19:00:00 16.6 6 Este 21 Este 0 982.1 0.5 31
2019-03-25 18:00:00 18.1 9 Este 23 Sudeste 0 981.8 -0.3 28
2019-03-25 17:00:00 18.9 9 Sudeste 27 Este 0 981.5 -1.5 27
2019-03-25 16:00:00 21.3 6 Sudeste 22 Sudeste 0 981.6 -2.4 25
2019-03-25 15:00:00 20.7 10 Sudeste 23 Este 0 982.1 -2.8 26
2019-03-25 14:00:00 20.7 10 Sudeste 27 Nordeste 0 983 -2.1 24
2019-03-25 13:00:00 20.4 8 Este 28 Este 0 984 -1.2 25
2019-03-25 12:00:00 18.2 11 Sudeste 27 Sudeste 0 984.9 -0.7 27
2019-03-25 11:00:00 18.5 8 Este 25 Este 0 985.1 -0.2 28
2019-03-25 10:00:00 17.5 2 Sudeste 12 Este 0 985.2 0.4 29
2019-03-25 09:00:00 13.7 0 Calma 5 Sudoeste 0 985.6 0.9 41
2019-03-25 08:00:00 9.8 0 Calma 6 Oeste 0 985.3 0.4 53
2019-03-25 07:00:00 8.7 0 Calma 6 Noroeste 0 984.8 -0.6 57
2019-03-25 06:00:00 8.8 0 Calma 7 Sudoeste 0 984.7 -0.9 57
2019-03-25 05:00:00 10.2 0 Calma 4 Noroeste 0 984.9 -1.1 50
2019-03-25 04:00:00 10.4 0 Calma 6 Noroeste 0 985.4 -0.8 47
2019-03-25 03:00:00 11.2 0 Calma 7 Noroeste 0 985.6 -1 46
2019-03-25 02:00:00 11 0 Calma 8 Noroeste 0 986 -0.8 48
2019-03-25 01:00:00 12.3 3 Norte 7 Norte 0 986.2 -0.9 44
2019-03-25 00:00:00 12.6 2 Nordeste 8 Nordeste 0 986.6 -0.4 45